Time;durP1;ratioP1;P1;durP2;ratioP2;P2;SDS_P1;SDS_P2;PMS_P1;PMS_P2;Temp;Humidity;BMP_temperature;BMP_pressure;BME280_temperature;BME280_humidity;BME280_pressure;Samples;Min_cycle;Max_cycle;Signal;HPM_P1;HPM_P2
2023/07/25 00:00:49;;;;;;;10.40;2.83;;;;;;;15.88;98.79;99682.19;5040741;28;20211;-85
2023/07/25 00:03:16;;;;;;;8.10;2.83;;;;;;;15.83;98.37;99679.09;5036746;28;20221;-85
2023/07/25 00:05:42;;;;;;;5.80;2.73;;;;;;;15.82;98.38;99676.56;5036639;28;20219;-85
2023/07/25 00:08:09;;;;;;;11.83;2.70;;;;;;;15.77;97.98;99679.72;5034474;28;20215;-86
2023/07/25 00:10:35;;;;;;;4.67;2.50;;;;;;;15.75;98.01;99680.88;5034353;28;20203;-85
2023/07/25 00:13:02;;;;;;;4.73;2.33;;;;;;;15.74;97.95;99680.03;5036665;28;20230;-85
2023/07/25 00:15:29;;;;;;;7.50;2.40;;;;;;;15.71;97.65;99680.34;5037255;28;20203;-85
2023/07/25 00:17:56;;;;;;;6.00;2.37;;;;;;;15.69;97.40;99682.34;5038881;28;20216;-85
2023/07/25 00:20:23;;;;;;;5.93;2.60;;;;;;;15.65;97.17;99675.56;5039726;28;20238;-86
2023/07/25 00:22:49;;;;;;;6.07;2.30;;;;;;;15.62;96.92;99686.63;5039466;28;20211;-86
2023/07/25 00:25:16;;;;;;;10.70;2.90;;;;;;;15.58;96.48;99682.56;5032507;28;20601;-85
2023/07/25 00:27:43;;;;;;;9.87;2.47;;;;;;;15.55;96.31;99682.84;5047531;28;20559;-85
2023/07/25 00:30:10;;;;;;;5.70;2.13;;;;;;;15.52;96.28;99688.50;5037629;28;20709;-86
2023/07/25 00:32:38;;;;;;;8.03;2.60;;;;;;;15.49;96.13;99696.84;5038250;28;20232;-85
2023/07/25 00:35:05;;;;;;;7.07;2.60;;;;;;;15.45;95.63;99699.00;5037534;28;20233;-86
2023/07/25 00:37:32;;;;;;;6.50;2.43;;;;;;;15.42;95.74;99699.28;5037036;28;20214;-85
2023/07/25 00:39:59;;;;;;;5.63;2.33;;;;;;;15.40;95.61;99703.16;5033775;28;20214;-85
2023/07/25 00:42:25;;;;;;;8.33;2.47;;;;;;;15.35;95.16;99710.78;5041909;28;20198;-85
2023/07/25 00:44:52;;;;;;;7.30;2.07;;;;;;;15.30;95.02;99708.56;5035090;28;20222;-85
2023/07/25 00:47:21;;;;;;;7.07;2.60;;;;;;;15.25;94.68;99713.50;5040529;28;20213;-86
2023/07/25 00:49:50;;;;;;;7.07;2.07;;;;;;;15.21;94.88;99714.84;5042181;28;20226;-86
2023/07/25 00:52:17;;;;;;;8.63;2.70;;;;;;;15.16;94.85;99707.22;5039725;28;20206;-85
2023/07/25 00:54:47;;;;;;;5.77;1.90;;;;;;;15.13;94.48;99707.50;5041371;28;20569;-85
2023/07/25 00:57:14;;;;;;;5.50;2.77;;;;;;;15.10;94.73;99704.28;5040199;28;20214;-85
2023/07/25 00:59:41;;;;;;;5.63;2.50;;;;;;;15.08;94.80;99704.44;5038983;28;20235;-85
2023/07/25 01:02:07;;;;;;;7.60;2.30;;;;;;;15.04;94.91;99705.75;5043132;28;20213;-85
2023/07/25 01:04:34;;;;;;;5.80;2.10;;;;;;;15.03;95.10;99712.09;5037485;28;20222;-86
2023/07/25 01:07:02;;;;;;;6.30;2.33;;;;;;;15.02;95.20;99710.41;5046843;28;20662;-85
2023/07/25 01:09:36;;;;;;;5.83;2.30;;;;;;;15.02;95.19;99707.72;5042459;28;20202;-85
2023/07/25 01:12:05;;;;;;;5.90;2.47;;;;;;;15.00;95.19;99695.44;5053635;28;20220;-85
2023/07/25 01:14:32;;;;;;;6.57;2.40;;;;;;;15.00;95.68;99700.81;5042604;28;20229;-84
2023/07/25 01:16:59;;;;;;;7.90;2.33;;;;;;;15.00;95.58;99703.50;5040557;28;20210;-85
2023/07/25 01:19:29;;;;;;;4.17;2.30;;;;;;;14.98;95.83;99709.00;5039509;28;20209;-85
2023/07/25 01:21:55;;;;;;;9.90;2.50;;;;;;;14.97;95.71;99701.09;5036509;28;20207;-85
2023/07/25 01:24:23;;;;;;;7.97;2.37;;;;;;;14.94;96.36;99711.13;5036395;28;20221;-85
2023/07/25 01:26:50;;;;;;;4.20;2.27;;;;;;;14.92;96.41;99710.44;5035955;28;20208;-85
2023/07/25 01:29:16;;;;;;;5.80;2.40;;;;;;;14.92;96.30;99712.25;5038363;28;20563;-85
2023/07/25 01:31:43;;;;;;;4.43;2.07;;;;;;;14.90;96.78;99709.72;5033829;28;20214;-86
2023/07/25 01:34:09;;;;;;;5.67;2.30;;;;;;;14.90;96.68;99722.28;5038751;28;20234;-84
2023/07/25 01:36:36;;;;;;;4.67;2.00;;;;;;;14.88;97.00;99722.44;5040346;28;20202;-85
2023/07/25 01:39:02;;;;;;;4.93;2.03;;;;;;;14.86;96.79;99716.41;5036108;28;20218;-85
2023/07/25 01:41:30;;;;;;;10.80;2.10;;;;;;;14.85;97.26;99719.22;5040363;28;20231;-85
2023/07/25 01:43:57;;;;;;;6.83;2.30;;;;;;;14.84;97.36;99718.38;5035283;28;20223;-84
2023/07/25 01:46:23;;;;;;;5.20;1.97;;;;;;;14.84;97.45;99725.56;5030683;28;20207;-83
2023/07/25 01:48:50;;;;;;;6.00;2.60;;;;;;;14.83;97.55;99718.53;5029921;28;20217;-84
2023/07/25 01:51:16;;;;;;;7.80;2.27;;;;;;;14.82;97.50;99733.75;5026754;28;20647;-84
2023/07/25 01:53:42;;;;;;;6.67;2.33;;;;;;;14.82;97.67;99732.91;5031500;28;20282;-84
2023/07/25 01:56:09;;;;;;;7.77;2.50;;;;;;;14.83;98.09;99729.25;5033924;28;20203;-85
2023/07/25 01:58:37;;;;;;;7.57;2.30;;;;;;;14.82;97.97;99727.56;5034257;28;20233;-84
2023/07/25 02:01:03;;;;;;;8.47;2.77;;;;;;;14.83;98.14;99723.88;5032839;28;20210;-84
2023/07/25 02:03:30;;;;;;;7.70;2.60;;;;;;;14.84;98.07;99722.91;5033220;28;20223;-83
2023/07/25 02:05:56;;;;;;;10.77;2.33;;;;;;;14.84;98.01;99725.56;5032704;28;20214;-84
2023/07/25 02:08:23;;;;;;;9.67;2.40;;;;;;;14.83;98.28;99721.22;5034269;28;20210;-84
2023/07/25 02:10:49;;;;;;;9.83;2.47;;;;;;;14.82;97.88;99723.03;5034568;28;20207;-84
2023/07/25 02:13:16;;;;;;;12.20;3.07;;;;;;;14.82;98.06;99725.72;5029758;28;20230;-84
2023/07/25 02:15:43;;;;;;;7.13;2.57;;;;;;;14.83;98.41;99729.25;5029806;28;20213;-83
2023/07/25 02:18:10;;;;;;;8.83;2.50;;;;;;;14.83;98.27;99738.13;5031693;28;20199;-83
2023/07/25 02:20:36;;;;;;;6.37;2.40;;;;;;;14.84;98.67;99729.09;5032782;28;20213;-84
2023/07/25 02:23:03;;;;;;;7.33;3.13;;;;;;;14.84;98.37;99728.25;5032739;28;20211;-85
2023/07/25 02:25:29;;;;;;;11.50;3.00;;;;;;;14.84;98.40;99734.47;5027388;28;20229;-84
2023/07/25 02:27:56;;;;;;;6.67;2.20;;;;;;;14.83;98.61;99730.09;5037322;28;20577;-84
2023/07/25 02:30:23;;;;;;;9.23;3.23;;;;;;;14.83;99.03;99730.09;5035210;28;20206;-85
2023/07/25 02:32:50;;;;;;;6.33;2.53;;;;;;;14.84;98.78;99728.25;5029638;28;20218;-84
2023/07/25 02:35:17;;;;;;;6.10;2.57;;;;;;;14.84;98.75;99728.25;5031883;28;20226;-84
2023/07/25 02:37:43;;;;;;;6.50;2.70;;;;;;;14.84;98.92;99730.94;5033147;28;20218;-85
2023/07/25 02:40:10;;;;;;;10.73;3.00;;;;;;;14.84;99.23;99731.78;5032987;28;20651;-83
2023/07/25 02:42:37;;;;;;;9.13;2.13;;;;;;;14.84;98.94;99728.25;5034760;28;20206;-84
2023/07/25 02:45:03;;;;;;;8.83;3.10;;;;;;;14.86;99.49;99734.31;5031299;28;20242;-85
2023/07/25 02:47:30;;;;;;;11.63;2.70;;;;;;;14.87;99.25;99725.25;5032057;28;20206;-86
2023/07/25 02:49:58;;;;;;;6.00;2.30;;;;;;;14.88;99.50;99724.28;5031949;28;20207;-85
2023/07/25 02:52:24;;;;;;;7.90;2.80;;;;;;;14.89;99.33;99725.97;5027849;28;20201;-85
2023/07/25 02:54:51;;;;;;;10.90;2.53;;;;;;;14.89;98.99;99721.44;5031211;28;20609;-84
2023/07/25 02:57:17;;;;;;;6.07;2.57;;;;;;;14.90;98.76;99720.47;5032943;28;20214;-85
2023/07/25 02:59:43;;;;;;;7.20;2.60;;;;;;;14.92;99.20;99720.31;5030911;28;20659;-85
2023/07/25 03:02:10;;;;;;;12.87;3.20;;;;;;;14.92;98.93;99720.31;5033207;28;20684;-85
2023/07/25 03:04:37;;;;;;;8.33;2.77;;;;;;;14.94;99.02;99715.66;5031708;28;20283;-85
2023/07/25 03:07:05;;;;;;;5.63;2.60;;;;;;;14.93;99.09;99720.16;5034305;28;20217;-84
2023/07/25 03:09:32;;;;;;;10.60;3.13;;;;;;;14.94;98.50;99723.69;5033328;28;20576;-84
2023/07/25 03:11:58;;;;;;;11.87;3.07;;;;;;;14.94;98.65;99712.97;5033478;28;20238;-85
2023/07/25 03:14:25;;;;;;;9.80;2.93;;;;;;;14.94;98.70;99721.84;5032699;28;20237;-84
2023/07/25 03:16:51;;;;;;;10.30;2.73;;;;;;;14.96;99.03;99716.34;5032982;28;20206;-84
2023/07/25 03:19:18;;;;;;;12.67;3.00;;;;;;;14.96;99.02;99716.34;5033725;28;20212;-84
2023/07/25 03:21:44;;;;;;;7.63;3.13;;;;;;;14.98;99.01;99722.41;5037487;28;20830;-85
2023/07/25 03:24:12;;;;;;;11.60;2.70;;;;;;;15.00;99.22;99722.25;5029265;28;20222;-84
2023/07/25 03:26:39;;;;;;;6.70;2.57;;;;;;;15.01;99.20;99718.59;5035370;28;20206;-84
2023/07/25 03:29:05;;;;;;;7.73;2.60;;;;;;;14.99;99.21;99716.06;5031758;28;20208;-84
2023/07/25 03:31:31;;;;;;;4.40;2.90;;;;;;;14.99;98.66;99726.78;5024151;28;20235;-84
2023/07/25 03:33:58;;;;;;;9.73;2.60;;;;;;;14.99;98.94;99721.41;5031291;28;20679;-84
2023/07/25 03:36:25;;;;;;;11.37;3.07;;;;;;;14.99;98.95;99712.53;5036579;28;20214;-84
2023/07/25 03:38:51;;;;;;;11.93;3.27;;;;;;;14.99;98.80;99707.16;5024871;28;20214;-82
2023/07/25 03:41:19;;;;;;;6.17;3.17;;;;;;;14.99;98.69;99713.38;5029049;28;20209;-84
2023/07/25 03:43:46;;;;;;;8.10;3.00;;;;;;;14.99;98.69;99707.16;5020876;28;20222;-84
2023/07/25 03:46:12;;;;;;;6.73;2.80;;;;;;;14.98;98.80;99700.97;5028499;28;20203;-84
2023/07/25 03:48:38;;;;;;;8.90;2.90;;;;;;;14.98;98.90;99703.66;5031586;28;20207;-84
2023/07/25 03:51:05;;;;;;;8.60;3.40;;;;;;;14.98;98.90;99709.00;5026016;28;20207;-84
2023/07/25 03:53:31;;;;;;;6.87;3.37;;;;;;;14.99;98.63;99715.22;5030523;28;20234;-84
2023/07/25 03:55:58;;;;;;;8.33;3.20;;;;;;;14.99;98.65;99724.09;5027698;28;20206;-84
2023/07/25 03:58:26;;;;;;;9.73;3.67;;;;;;;14.99;99.04;99716.06;5028994;28;20207;-85
2023/07/25 04:00:52;;;;;;;9.30;2.97;;;;;;;14.98;98.87;99722.41;5030588;28;20206;-84
2023/07/25 04:03:18;;;;;;;5.30;3.10;;;;;;;14.99;98.94;99726.78;5024829;28;20229;-84
2023/07/25 04:05:45;;;;;;;5.40;3.30;;;;;;;15.00;98.96;99728.47;5025540;28;20229;-84
2023/07/25 04:08:11;;;;;;;8.67;3.93;;;;;;;15.01;99.19;99730.16;5030364;28;20209;-84
2023/07/25 04:10:38;;;;;;;7.47;3.40;;;;;;;14.99;99.07;99716.06;5036218;28;20201;-84
2023/07/25 04:13:04;;;;;;;8.93;3.23;;;;;;;15.00;98.85;99722.25;5028604;28;20207;-84
2023/07/25 04:15:32;;;;;;;5.93;3.10;;;;;;;15.02;99.34;99720.28;5028555;28;20226;-84
2023/07/25 04:17:59;;;;;;;7.47;3.40;;;;;;;15.02;99.01;99721.13;5030629;28;20689;-84
2023/07/25 04:20:25;;;;;;;6.13;3.40;;;;;;;15.02;98.92;99726.50;5027086;28;20656;-84
2023/07/25 04:22:52;;;;;;;9.20;3.20;;;;;;;15.03;98.83;99728.19;5030475;28;20206;-83
2023/07/25 04:25:18;;;;;;;8.97;3.13;;;;;;;15.04;98.69;99729.88;5028166;28;20223;-83
2023/07/25 04:27:45;;;;;;;7.37;3.03;;;;;;;15.05;98.94;99720.00;5031234;28;20209;-84
2023/07/25 04:30:12;;;;;;;6.17;3.10;;;;;;;15.06;98.90;99727.88;5031923;28;20203;-85
2023/07/25 04:32:40;;;;;;;11.13;3.70;;;;;;;15.06;98.45;99716.28;5018735;28;20198;-85
2023/07/25 04:35:07;;;;;;;7.70;3.30;;;;;;;15.07;98.47;99717.97;5031645;28;20233;-83
2023/07/25 04:37:33;;;;;;;7.60;3.43;;;;;;;15.08;98.58;99720.50;5032610;28;20660;-83
2023/07/25 04:40:00;;;;;;;7.20;3.50;;;;;;;15.09;98.33;99710.63;5022849;28;20211;-83
2023/07/25 04:42:26;;;;;;;12.07;3.90;;;;;;;15.10;98.43;99705.13;5025905;28;20207;-83
2023/07/25 04:44:53;;;;;;;7.70;3.00;;;;;;;15.12;98.18;99716.56;5028592;28;20237;-84
2023/07/25 04:47:19;;;;;;;11.17;3.90;;;;;;;15.13;98.19;99714.72;5029782;28;20227;-84
2023/07/25 04:49:47;;;;;;;9.00;3.27;;;;;;;15.13;98.25;99709.34;5021043;28;20628;-84
2023/07/25 04:52:13;;;;;;;6.10;3.20;;;;;;;15.15;98.33;99713.56;5026382;28;20206;-84
2023/07/25 04:54:40;;;;;;;10.43;3.47;;;;;;;15.15;98.17;99715.41;5027130;28;20253;-83
2023/07/25 04:57:07;;;;;;;7.90;3.50;;;;;;;15.17;98.45;99718.78;5031029;28;20241;-84
2023/07/25 04:59:33;;;;;;;8.43;3.37;;;;;;;15.15;98.28;99716.25;5026842;28;20545;-84
2023/07/25 05:02:00;;;;;;;8.33;4.00;;;;;;;15.15;98.10;99716.25;5021500;28;20218;-84
2023/07/25 05:04:26;;;;;;;12.00;3.53;;;;;;;15.15;98.06;99713.56;5030960;28;20229;-85
2023/07/25 05:06:54;;;;;;;7.60;3.10;;;;;;;15.15;97.96;99710.06;5031004;28;20563;-85
2023/07/25 05:09:21;;;;;;;7.37;3.90;;;;;;;15.15;98.02;99715.41;5030995;28;20759;-86
2023/07/25 05:11:50;;;;;;;8.63;3.57;;;;;;;15.15;98.12;99708.22;5024771;28;20223;-85
2023/07/25 05:14:17;;;;;;;12.13;3.50;;;;;;;15.17;98.17;99713.44;5028855;28;20268;-86
2023/07/25 05:16:43;;;;;;;10.30;3.70;;;;;;;15.18;97.82;99712.44;5025325;28;20208;-85
2023/07/25 05:19:10;;;;;;;15.23;3.50;;;;;;;15.16;97.42;99715.28;5031509;28;20206;-84
2023/07/25 05:21:36;;;;;;;8.80;3.90;;;;;;;15.15;97.63;99710.06;5025862;28;20225;-84
2023/07/25 05:24:04;;;;;;;6.67;3.30;;;;;;;15.18;97.74;99710.59;5032198;28;20242;-85
2023/07/25 05:26:31;;;;;;;8.07;3.43;;;;;;;15.21;97.81;99704.94;5030086;28;20208;-86
2023/07/25 05:28:57;;;;;;;10.23;3.77;;;;;;;15.23;97.41;99702.09;5035321;28;20223;-87
2023/07/25 05:31:24;;;;;;;10.43;3.83;;;;;;;15.24;97.13;99703.78;5041914;28;20216;-85
2023/07/25 05:33:50;;;;;;;6.10;3.10;;;;;;;15.25;97.33;99700.94;5035324;28;20231;-85
2023/07/25 05:36:17;;;;;;;7.77;4.10;;;;;;;15.28;97.14;99702.50;5035146;28;20209;-84
2023/07/25 05:38:43;;;;;;;8.77;3.30;;;;;;;15.32;97.17;99708.41;5037202;28;20683;-85
2023/07/25 05:41:11;;;;;;;15.13;4.53;;;;;;;15.36;96.82;99702.59;5035490;28;20685;-85
2023/07/25 05:43:37;;;;;;;5.77;3.47;;;;;;;15.42;96.83;99711.84;5028656;28;20717;-85
2023/07/25 05:46:04;;;;;;;9.57;2.70;;;;;;;15.49;96.44;99718.31;5034778;28;20623;-84
2023/07/25 05:48:31;;;;;;;7.10;3.57;;;;;;;15.52;95.43;99720.72;5030955;28;20236;-85
2023/07/25 05:50:57;;;;;;;5.60;3.23;;;;;;;15.56;95.05;99722.97;5026827;28;20219;-85
2023/07/25 05:53:23;;;;;;;6.27;3.47;;;;;;;15.63;94.74;99731.25;5031467;28;20238;-84
2023/07/25 05:55:50;;;;;;;5.77;3.20;;;;;;;15.67;94.06;99731.78;5035744;28;20226;-84
2023/07/25 05:58:18;;;;;;;9.30;3.13;;;;;;;15.69;93.16;99729.81;5035158;28;20204;-85
2023/07/25 06:00:46;;;;;;;7.33;3.27;;;;;;;15.67;92.10;99746.06;5034390;28;20224;-84
2023/07/25 06:03:14;;;;;;;4.03;2.97;;;;;;;15.65;91.56;99734.63;5032260;28;20208;-85
2023/07/25 06:05:41;;;;;;;7.17;3.00;;;;;;;15.67;91.65;99748.75;5040906;28;20221;-84
2023/07/25 06:08:08;;;;;;;9.53;3.80;;;;;;;15.73;91.75;99752.69;5035703;28;20213;-86
2023/07/25 06:10:35;;;;;;;4.63;3.30;;;;;;;15.77;91.29;99752.19;5035892;28;20575;-85
2023/07/25 06:13:04;;;;;;;4.33;2.90;;;;;;;15.82;91.11;99757.13;5029913;28;20213;-84
2023/07/25 06:15:34;;;;;;;6.53;3.10;;;;;;;15.84;90.59;99758.66;5026336;28;20253;-84
2023/07/25 06:18:00;;;;;;;11.87;3.23;;;;;;;15.84;90.17;99765.88;5029295;28;20453;-84
2023/07/25 06:20:27;;;;;;;4.57;3.00;;;;;;;15.85;89.72;99767.56;5029941;28;20218;-84
2023/07/25 06:22:53;;;;;;;5.70;2.70;;;;;;;15.85;89.44;99763.03;5026516;28;20732;-85
2023/07/25 06:25:20;;;;;;;6.23;3.00;;;;;;;15.83;88.79;99765.03;5028661;28;20223;-85
2023/07/25 06:27:47;;;;;;;8.27;2.90;;;;;;;15.85;88.86;99778.31;5033078;28;20295;-85
2023/07/25 06:30:13;;;;;;;10.57;3.03;;;;;;;15.87;88.99;99779.00;5027111;28;20208;-83
2023/07/25 06:32:41;;;;;;;8.73;3.00;;;;;;;15.89;88.38;99783.22;5028801;28;20209;-84
2023/07/25 06:35:09;;;;;;;5.83;2.97;;;;;;;15.92;88.26;99790.13;5034549;28;20291;-84
2023/07/25 06:37:37;;;;;;;9.13;3.10;;;;;;;15.97;88.41;99788.66;5028382;28;20209;-84
2023/07/25 06:40:04;;;;;;;7.67;2.70;;;;;;;16.03;88.11;99792.59;5033246;28;20219;-85
2023/07/25 06:42:30;;;;;;;8.27;3.07;;;;;;;16.06;87.62;99794.13;5020752;28;20201;-84
2023/07/25 06:44:57;;;;;;;9.50;3.03;;;;;;;16.13;88.32;99787.13;5027496;28;20223;-86
2023/07/25 06:47:25;;;;;;;8.00;3.37;;;;;;;16.23;87.91;99785.22;5027794;28;20572;-84
2023/07/25 06:49:53;;;;;;;6.17;3.40;;;;;;;16.31;87.50;99796.03;5024922;28;20835;-84
2023/07/25 06:52:19;;;;;;;5.27;2.40;;;;;;;16.39;86.63;99782.69;5030536;28;20205;-84
2023/07/25 06:54:46;;;;;;;4.40;2.57;;;;;;;16.47;85.66;99790.81;5031104;28;20238;-84
2023/07/25 06:57:12;;;;;;;5.33;2.57;;;;;;;16.49;83.79;99790.63;5033617;28;20218;-86
2023/07/25 06:59:39;;;;;;;4.40;2.60;;;;;;;16.50;82.73;99795.84;5039875;28;20214;-84
2023/07/25 07:02:05;;;;;;;7.83;3.10;;;;;;;16.50;82.27;99782.41;5033293;28;20643;-84
2023/07/25 07:04:32;;;;;;;5.80;2.80;;;;;;;16.51;82.01;99786.78;5032641;28;20222;-85
2023/07/25 07:06:59;;;;;;;7.83;3.53;;;;;;;16.52;81.72;99790.31;5036959;28;20208;-84
2023/07/25 07:09:26;;;;;;;6.23;2.90;;;;;;;16.52;81.93;99783.09;5030057;28;20205;-84
2023/07/25 07:11:52;;;;;;;4.93;2.50;;;;;;;16.55;81.74;99766.66;5028865;28;20218;-84
2023/07/25 07:14:19;;;;;;;5.10;2.50;;;;;;;16.65;81.71;99763.94;5032406;28;20226;-85
2023/07/25 07:16:45;;;;;;;3.23;2.57;;;;;;;16.80;82.31;99758.81;5031539;28;20220;-84
2023/07/25 07:19:12;;;;;;;7.57;3.20;;;;;;;17.00;82.30;99762.97;5029586;28;20218;-84
2023/07/25 07:21:38;;;;;;;8.43;2.70;;;;;;;17.16;80.36;99760.38;5030043;28;20255;-83
2023/07/25 07:24:08;;;;;;;4.97;2.47;;;;;;;17.32;79.00;99749.66;5030573;28;20254;-83
2023/07/25 07:26:34;;;;;;;7.30;2.87;;;;;;;17.48;77.24;99753.44;5039794;28;20680;-84
2023/07/25 07:29:00;;;;;;;6.83;2.30;;;;;;;17.60;76.30;99752.09;5035136;28;20224;-83
2023/07/25 07:31:27;;;;;;;5.47;2.53;;;;;;;17.76;75.20;99757.56;5024577;28;20215;-84
2023/07/25 07:33:53;;;;;;;3.73;2.27;;;;;;;17.90;73.89;99753.41;5031834;28;20693;-84
2023/07/25 07:36:20;;;;;;;6.60;2.13;;;;;;;17.96;71.81;99747.34;5031560;28;20225;-84
2023/07/25 07:38:46;;;;;;;4.10;2.07;;;;;;;17.95;70.69;99746.50;5029013;28;20209;-86
2023/07/25 07:41:14;;;;;;;3.93;2.40;;;;;;;18.01;70.76;99743.16;5026271;28;20235;-85
2023/07/25 07:43:40;;;;;;;5.63;1.90;;;;;;;18.14;71.40;99737.25;5027686;28;20240;-84
2023/07/25 07:46:07;;;;;;;5.40;2.03;;;;;;;18.27;69.60;99734.88;5030598;28;20208;-84
2023/07/25 07:48:34;;;;;;;5.93;1.80;;;;;;;18.34;68.20;99735.91;5033799;28;20205;-84
2023/07/25 07:51:03;;;;;;;5.30;2.17;;;;;;;18.39;68.05;99732.72;5038744;28;20208;-85
2023/07/25 07:53:30;;;;;;;2.53;1.70;;;;;;;18.45;67.60;99721.22;5030426;28;20225;-84
2023/07/25 07:55:56;;;;;;;4.80;1.80;;;;;;;18.50;67.44;99724.28;5030925;28;20225;-85
2023/07/25 07:58:24;;;;;;;3.73;1.80;;;;;;;18.54;67.38;99714.84;5035492;28;20780;-84
2023/07/25 08:00:51;;;;;;;9.07;2.10;;;;;;;18.57;67.73;99722.59;5031423;28;20211;-84
2023/07/25 08:03:17;;;;;;;3.17;2.10;;;;;;;18.58;67.54;99726.13;5030099;28;20817;-83
2023/07/25 08:05:44;;;;;;;4.30;2.30;;;;;;;18.60;67.95;99721.44;5026006;28;20622;-83
2023/07/25 08:08:11;;;;;;;4.03;1.87;;;;;;;18.67;67.93;99717.88;5028660;28;20879;-83
2023/07/25 08:10:37;;;;;;;7.00;2.83;;;;;;;18.74;67.26;99718.03;5031809;28;20208;-83
2023/07/25 08:13:04;;;;;;;3.43;1.40;;;;;;;18.80;65.61;99721.91;5028024;28;20202;-83
2023/07/25 08:15:31;;;;;;;2.57;1.30;;;;;;;18.81;63.63;99712.81;5022788;28;20238;-84
2023/07/25 08:17:58;;;;;;;2.93;1.30;;;;;;;18.85;62.82;99720.34;5028919;28;20211;-83
2023/07/25 08:20:24;;;;;;;3.33;1.63;;;;;;;18.93;61.91;99720.34;5029836;28;20215;-83
2023/07/25 08:22:51;;;;;;;3.83;1.67;;;;;;;19.07;61.81;99716.06;5030164;28;20211;-83
2023/07/25 08:25:17;;;;;;;3.50;1.40;;;;;;;19.23;61.56;99704.38;5033399;28;20709;-84
2023/07/25 08:27:44;;;;;;;3.70;1.50;;;;;;;19.40;61.29;99714.06;5027429;28;20668;-83
2023/07/25 08:30:10;;;;;;;4.03;1.63;;;;;;;19.58;60.55;99719.25;5030673;28;20581;-83
2023/07/25 08:32:38;;;;;;;3.20;1.53;;;;;;;19.71;59.33;99714.09;5029215;28;20199;-83
2023/07/25 08:35:05;;;;;;;3.53;1.27;;;;;;;19.73;56.98;99723.69;5027837;28;20274;-84
2023/07/25 08:37:32;;;;;;;2.57;1.07;;;;;;;19.74;55.49;99714.59;5029307;28;20203;-84
2023/07/25 08:39:59;;;;;;;2.90;1.03;;;;;;;19.79;54.54;99716.75;5029219;28;20215;-84
2023/07/25 08:42:27;;;;;;;4.37;1.13;;;;;;;19.84;54.04;99724.34;5030063;28;20205;-84
2023/07/25 08:44:55;;;;;;;2.67;1.30;;;;;;;19.92;54.24;99706.19;5024913;28;20232;-83
2023/07/25 08:47:26;;;;;;;2.33;1.45;;;;;;;20.09;54.73;99710.44;5027398;28;20202;-84
2023/07/25 08:49:57;;;;;;;3.72;1.40;;;;;;;20.31;55.04;99708.75;5032609;28;20202;-83
2023/07/25 08:52:28;;;;;;;2.17;1.17;;;;;;;20.44;53.62;99709.00;5030178;28;20205;-83
2023/07/25 08:54:55;;;;;;;3.13;1.27;;;;;;;20.44;53.08;99714.41;5024947;28;20233;-86
2023/07/25 08:57:22;;;;;;;2.67;1.27;;;;;;;20.41;53.15;99717.50;5028724;28;20203;-83
2023/07/25 08:59:49;;;;;;;5.10;1.88;;;;;;;20.39;53.48;99714.13;5029867;28;20202;-84
2023/07/25 09:02:17;;;;;;;2.70;1.43;;;;;;;20.46;54.09;99714.22;5032331;28;20206;-83
2023/07/25 09:04:45;;;;;;;4.10;2.10;;;;;;;20.56;54.35;99730.22;5033076;28;20234;-83
2023/07/25 09:07:13;;;;;;;1.13;0.90;;;;;;;20.58;52.44;99722.75;5029711;28;20206;-83
2023/07/25 09:09:39;;;;;;;2.17;1.30;;;;;;;20.48;51.49;99723.00;5032255;28;20210;-82
2023/07/25 09:12:07;;;;;;;4.30;1.20;;;;;;;20.40;51.33;99720.38;5026161;28;20210;-83
2023/07/25 09:14:36;;;;;;;2.83;1.08;;;;;;;20.41;51.55;99720.19;5024531;28;20252;-82
2023/07/25 09:17:03;;;;;;;3.22;1.30;;;;;;;20.53;51.61;99717.03;5025552;28;20757;-84
2023/07/25 09:19:30;;;;;;;2.65;1.13;;;;;;;20.63;50.69;99714.91;5040253;28;20210;-83
2023/07/25 09:21:57;;;;;;;2.33;1.15;;;;;;;20.71;50.67;99718.38;5034926;28;20327;-83
2023/07/25 09:24:35;;;;;;;2.90;1.40;;;;;;;20.86;50.83;99725.66;5032991;28;20238;-84
2023/07/25 09:27:01;;;;;;;3.45;1.20;;;;;;;21.00;51.29;99725.66;5039540;28;20258;-83
2023/07/25 09:29:28;;;;;;;3.55;1.30;;;;;;;21.16;51.48;99730.03;5031893;28;20202;-83
2023/07/25 09:31:55;;;;;;;1.80;1.10;;;;;;;21.28;50.77;99739.44;5030005;28;20206;-83
2023/07/25 09:34:24;;;;;;;2.45;1.00;;;;;;;21.38;49.58;99731.84;5025814;28;20224;-83
2023/07/25 09:36:50;;;;;;;3.78;1.08;;;;;;;21.41;49.02;99733.34;5027040;28;20222;-83
2023/07/25 09:39:18;;;;;;;3.42;1.48;;;;;;;21.50;49.43;99736.78;5031422;28;20202;-83
2023/07/25 09:41:46;;;;;;;4.22;1.25;;;;;;;21.56;47.15;99741.44;5033623;28;20210;-84
2023/07/25 09:44:12;;;;;;;4.95;0.82;;;;;;;21.57;46.01;99734.97;5029935;28;20716;-83
2023/07/25 09:46:39;;;;;;;1.85;0.98;;;;;;;21.62;45.76;99729.84;5031302;28;20217;-83
2023/07/25 09:49:05;;;;;;;2.42;0.73;;;;;;;21.67;44.88;99740.97;5028793;28;20205;-82
2023/07/25 09:51:32;;;;;;;4.13;1.02;;;;;;;21.69;45.16;99736.16;5028410;28;20206;-84
2023/07/25 09:53:58;;;;;;;5.95;1.23;;;;;;;21.67;46.17;99735.53;5032752;28;20295;-82
2023/07/25 09:56:27;;;;;;;3.55;0.90;;;;;;;21.69;46.64;99728.03;5032896;28;20623;-84
2023/07/25 09:58:55;;;;;;;3.33;1.05;;;;;;;21.70;47.04;99724.28;5032368;28;20582;-83
2023/07/25 10:01:21;;;;;;;3.15;1.20;;;;;;;21.75;46.89;99732.69;5032322;28;20585;-82
2023/07/25 10:03:48;;;;;;;2.75;1.13;;;;;;;21.78;46.28;99735.88;5025025;28;20222;-83
2023/07/25 10:06:16;;;;;;;3.20;0.98;;;;;;;21.82;46.13;99741.75;5034180;28;20608;-83
2023/07/25 10:08:43;;;;;;;2.28;0.90;;;;;;;21.79;46.37;99739.41;5031869;28;20287;-83
2023/07/25 10:11:11;;;;;;;3.15;1.17;;;;;;;21.77;47.64;99736.91;5028825;28;20220;-84
2023/07/25 10:13:38;;;;;;;1.42;0.88;;;;;;;21.77;47.57;99741.47;5033825;28;20234;-83
2023/07/25 10:16:08;;;;;;;2.08;0.88;;;;;;;21.71;47.45;99743.06;5031752;28;20230;-82
2023/07/25 10:18:35;;;;;;;2.60;1.10;;;;;;;21.65;47.16;99734.88;5032146;28;20715;-82
2023/07/25 10:21:02;;;;;;;2.70;0.88;;;;;;;21.57;47.00;99729.56;5034839;28;20198;-82
2023/07/25 10:23:31;;;;;;;1.30;0.90;;;;;;;21.47;46.59;99730.72;5028809;28;20229;-82
2023/07/25 10:26:09;;;;;;;2.40;0.77;;;;;;;21.46;46.60;99729.03;5033264;28;20258;-83
2023/07/25 10:28:35;;;;;;;2.35;1.42;;;;;;;21.52;46.80;99729.28;5030964;28;20205;-84
2023/07/25 10:31:05;;;;;;;2.20;0.85;;;;;;;21.53;45.36;99718.25;5027691;28;20689;-84
2023/07/25 10:33:37;;;;;;;2.20;0.98;;;;;;;21.56;45.71;99717.88;5026180;28;20892;-83
2023/07/25 10:36:04;;;;;;;2.10;0.68;;;;;;;21.59;45.78;99722.09;5030078;28;20210;-82
2023/07/25 10:38:32;;;;;;;3.03;0.98;;;;;;;21.61;46.35;99725.44;5030456;28;20208;-82
2023/07/25 10:41:00;;;;;;;2.50;0.88;;;;;;;21.64;46.71;99719.66;5029332;28;20272;-82
2023/07/25 10:43:29;;;;;;;3.13;1.15;;;;;;;21.66;46.93;99725.72;5035068;28;20217;-85
2023/07/25 10:45:56;;;;;;;4.15;1.00;;;;;;;21.67;47.05;99719.28;5027752;28;20218;-83
2023/07/25 10:48:44;;;;;;;2.33;0.88;;;;;;;21.69;46.67;99719.91;5030018;28;20202;-83
2023/07/25 10:51:12;;;;;;;1.20;0.60;;;;;;;21.69;45.48;99726.16;5028755;28;20261;-83
2023/07/25 10:53:39;;;;;;;2.40;0.93;;;;;;;21.66;44.81;99718.44;5033179;28;20229;-83
2023/07/25 10:56:13;;;;;;;2.33;0.70;;;;;;;21.66;44.70;99718.44;5028466;28;20233;-84
2023/07/25 10:59:01;;;;;;;2.13;0.90;;;;;;;21.69;44.75;99717.19;5027699;28;20210;-84
2023/07/25 11:01:44;;;;;;;2.70;0.85;;;;;;;21.77;45.28;99720.63;5030264;28;20209;-83
2023/07/25 11:04:31;;;;;;;3.83;1.08;;;;;;;21.83;45.52;99719.03;5030316;28;20233;-83
2023/07/25 11:07:07;;;;;;;1.70;0.70;;;;;;;21.85;45.38;99718.84;5025226;28;20202;-82
2023/07/25 11:09:39;;;;;;;2.50;0.82;;;;;;;21.86;45.09;99702.38;5035484;28;20297;-82
2023/07/25 11:12:07;;;;;;;1.40;0.82;;;;;;;21.89;44.45;99717.41;5030143;28;20828;-82
2023/07/25 11:14:40;;;;;;;3.30;1.00;;;;;;;21.91;44.13;99705.34;5027693;28;20634;-83
2023/07/25 11:17:07;;;;;;;1.42;0.90;;;;;;;21.97;44.18;99698.31;5029456;28;20599;-83
2023/07/25 11:19:35;;;;;;;1.83;0.70;;;;;;;22.05;44.18;99699.03;5034455;28;20213;-83
2023/07/25 11:22:08;;;;;;;2.85;1.00;;;;;;;22.11;43.73;99702.88;5028829;28;20210;-84
2023/07/25 11:24:40;;;;;;;2.67;0.90;;;;;;;22.16;43.90;99703.97;5031422;28;20705;-83
2023/07/25 11:27:07;;;;;;;1.88;0.70;;;;;;;22.22;43.73;99706.91;5028487;28;20195;-84
2023/07/25 11:29:34;;;;;;;1.20;0.60;;;;;;;22.28;43.46;99700.72;5031318;28;20206;-84
2023/07/25 11:32:02;;;;;;;0.85;0.55;;;;;;;22.35;42.83;99696.19;5030053;28;20305;-84